PWSweather.com
Personal Weather Stations
Station Observations
40SURVLA
Villa La Angostura, Villa La AngosturaAR

Villa La AngosturaVilla La AngosturaAR

Lat: -40.7307002, Lon: -71.6769804799115

Elevation: 2400

Station Type: Netatmo

Latest ConditionsUpdated 5:59:00 AM GMT-03:57 Saturday, Sep 23, 2017
Currently Today's Max Today's Min Today's Average
Temperature 38.3°F3.5°C 42.3°F5.7°C 38.3°F3.5°C 40.7°F4.8°C
Dew Point 34.7°F1.5°C 37.0°F2.8°C 34.7°F1.5°C 36.2°F2.3°C
Winds 0.6 mph W1.0 kmh W 1.9 mph WSW3.1 kmh WSW - 0.8 mph 1.3 kmh
Wind Gusts -- 3.1 mph5.0 kmh - -
Humidity 90% 90% 85% 88%
Pressure 30.16 in1021.3 mb 30.24 in1024.0 mb 30.15 in1021.0 mb -
Hour Temp Dew Point Humidity Winds Wind Gusts Pressure Precip Precip Rate Daily Precip Total
05:59 AM 38.3°F3.5°C 34.7°F1.5°C 90% 0.6 mph W1.0 kmh W -- 30.16 in1021.3 mb 0.00 in0.0 mm 0.00 in0.0 mm 0.00 in0.0 mm
05:50 AM 38.7°F3.7°C 35.1°F1.7°C 90% 0.7 mph N1.1 kmh N 1.8 mph2.9 kmh 30.16 in1021.3 mb 0.00 in0.0 mm 0.00 in0.0 mm 0.00 in0.0 mm
05:29 AM 38.8°F3.8°C 35.2°F1.8°C 90% 0.7 mph N1.1 kmh N 2.5 mph4.0 kmh 30.15 in1021.0 mb 0.00 in0.0 mm 0.00 in0.0 mm 0.00 in0.0 mm
05:10 AM 39.0°F3.9°C 35.1°F1.7°C 89% 0.7 mph W1.1 kmh W 1.8 mph2.9 kmh 30.16 in1021.3 mb 0.00 in0.0 mm 0.00 in0.0 mm 0.00 in0.0 mm
04:59 AM 39.2°F4.0°C 35.2°F1.8°C 89% 0.6 mph W1.0 kmh W -- 30.16 in1021.3 mb 0.00 in0.0 mm 0.00 in0.0 mm 0.00 in0.0 mm
04:49 AM 39.4°F4.1°C 35.1°F1.7°C 88% 0.7 mph NW1.1 kmh NW 1.8 mph2.9 kmh 30.16 in1021.3 mb 0.00 in0.0 mm 0.00 in0.0 mm 0.00 in0.0 mm
04:30 AM 39.7°F4.3°C 35.1°F1.7°C 87% 0.7 mph NW1.1 kmh NW 1.8 mph2.9 kmh 30.16 in1021.3 mb 0.00 in0.0 mm 0.00 in0.0 mm 0.00 in0.0 mm
04:09 AM 40.5°F4.7°C 36.1°F2.3°C 88% 1.8 mph NW2.9 kmh NW 2.5 mph4.0 kmh 30.17 in1021.7 mb 0.00 in0.0 mm 0.00 in0.0 mm 0.00 in0.0 mm
03:59 AM 40.8°F4.9°C 36.5°F2.5°C 88% 0.6 mph W1.0 kmh W -- 30.18 in1022.0 mb 0.00 in0.0 mm 0.00 in0.0 mm 0.00 in0.0 mm
03:49 AM 41.0°F5.0°C 36.7°F2.6°C 88% 0.7 mph W1.1 kmh W 2.5 mph4.0 kmh 30.18 in1022.0 mb 0.00 in0.0 mm 0.00 in0.0 mm 0.00 in0.0 mm
03:29 AM 41.0°F5.0°C 36.7°F2.6°C 88% 0.7 mph W1.1 kmh W 2.5 mph4.0 kmh 30.19 in1022.4 mb 0.00 in0.0 mm 0.00 in0.0 mm 0.00 in0.0 mm
03:19 AM 41.2°F5.1°C 36.9°F2.7°C 88% 0.7 mph NE1.1 kmh NE 2.5 mph4.0 kmh 30.19 in1022.4 mb 0.00 in0.0 mm 0.00 in0.0 mm 0.00 in0.0 mm
02:59 AM 41.2°F5.1°C 36.9°F2.7°C 88% 0.6 mph W1.0 kmh W -- 30.20 in1022.7 mb 0.00 in0.0 mm 0.00 in0.0 mm 0.00 in0.0 mm
02:49 AM 41.4°F5.2°C 37.0°F2.8°C 88% 0.7 mph NW1.1 kmh NW 1.8 mph2.9 kmh 30.20 in1022.7 mb 0.00 in0.0 mm 0.00 in0.0 mm 0.00 in0.0 mm
02:39 AM 41.2°F5.1°C 36.9°F2.7°C 88% 0.7 mph W1.1 kmh W 2.5 mph4.0 kmh 30.21 in1023.0 mb 0.00 in0.0 mm 0.00 in0.0 mm 0.00 in0.0 mm
02:09 AM 41.2°F5.1°C 36.1°F2.3°C 86% 0.7 mph W1.1 kmh W 3.1 mph5.0 kmh 30.23 in1023.7 mb 0.00 in0.0 mm 0.00 in0.0 mm 0.00 in0.0 mm
01:59 AM 41.2°F5.1°C 36.5°F2.5°C 87% 0.6 mph NW1.0 kmh NW -- 30.22 in1023.4 mb 0.00 in0.0 mm 0.00 in0.0 mm 0.00 in0.0 mm
01:49 AM 41.5°F5.3°C 36.5°F2.5°C 86% 0.7 mph N1.1 kmh N 2.5 mph4.0 kmh 30.22 in1023.4 mb 0.00 in0.0 mm 0.00 in0.0 mm 0.00 in0.0 mm
01:28 AM 41.7°F5.4°C 36.7°F2.6°C 86% 1.8 mph WSW2.9 kmh WSW 3.1 mph5.0 kmh 30.23 in1023.7 mb 0.00 in0.0 mm 0.00 in0.0 mm 0.00 in0.0 mm
01:19 AM 41.7°F5.4°C 36.7°F2.6°C 86% 0.7 mph NW1.1 kmh NW 1.8 mph2.9 kmh 30.23 in1023.7 mb 0.00 in0.0 mm 0.00 in0.0 mm 0.00 in0.0 mm
12:59 AM 41.9°F5.5°C 36.3°F2.4°C 85% 1.9 mph WSW3.1 kmh WSW -- 30.23 in1023.7 mb 0.00 in0.0 mm 0.00 in0.0 mm 0.00 in0.0 mm
12:48 AM 41.9°F5.5°C 36.9°F2.7°C 86% 0.7 mph NNE1.1 kmh NNE 2.5 mph4.0 kmh 30.23 in1023.7 mb 0.00 in0.0 mm 0.00 in0.0 mm 0.00 in0.0 mm
12:29 AM 42.1°F5.6°C 37.0°F2.8°C 86% 0.7 mph NE1.1 kmh NE 2.5 mph4.0 kmh 30.24 in1024.0 mb 0.00 in0.0 mm 0.00 in0.0 mm 0.00 in0.0 mm
12:08 AM 42.3°F5.7°C 36.7°F2.6°C 85% 0.7 mph W1.1 kmh W 1.8 mph2.9 kmh 30.23 in1023.7 mb 0.00 in0.0 mm 0.00 in0.0 mm 0.00 in0.0 mm